MSC Sinfonia — H8XH — position and weather

sailwx.info

Track history (hours):
 
Tides and Currents Weather Stations Pressure Air Temp Water Temp Dewpoint Dewpoint Depression Visibility Wind Speed Wind Dir Waves Ship Positions

MSC Sinfonia

Last reported at 2014-Aug-30 13:28 UTC. Time now 2014-Aug-30 20:33 UTC.
Position N 40°55' E 009°32'.

Length 251 m; draft 6.8 m.

Type: Passenger vessel. MMSI: 356715971.

Date/timePositionNaut miles runAvg speedWind from/ knotsBaromVisibWave heightAir tempDewpointWater temp
2014-Aug-30 13:28N 40°55' E 009°32'1 0.3
2014-Aug-30 10:22N 40°55' E 009°31'0 0.0
2014-Aug-30 09:28N 40°55' E 009°31'0 0.0
2014-Aug-30 08:31N 40°55' E 009°31'0 0.0
2014-Aug-30 06:33N 40°55' E 009°31'246 9.3
2014-Aug-29 04:13N 39°50' E 004°20'811.2
2014-Aug-29 03:32N 39°43' E 004°16'1111.8
2014-Aug-29 02:33N 39°35' E 004°05'1211.8
2014-Aug-29 01:33N 39°27' E 003°54'1211.8
2014-Aug-29 00:33N 39°19' E 003°43'1211.9
2014-Aug-28 23:33N 39°11' E 003°31'1312.1
2014-Aug-28 22:31N 39°03' E 003°19'1212.2
2014-Aug-28 21:33N 38°56' E 003°07'1212.0
2014-Aug-28 20:33N 38°54' E 002°52'1212.2
2014-Aug-28 19:33N 38°54' E 002°36'1212.3
2014-Aug-28 18:33N 38°54' E 002°20'1211.9
2014-Aug-28 17:34N 38°54' E 002°05'1211.8
2014-Aug-28 16:33N 38°54' E 001°50'1312.5
2014-Aug-28 15:33N 38°54' E 001°34'5 0.2
2014-Aug-27 15:31N 38°54' E 001°27'1010.9
2014-Aug-27 14:33N 38°58' E 001°40'1414.2
2014-Aug-27 13:33N 39°11' E 001°49'1914.2
2014-Aug-27 12:12N 39°28' E 001°59'914.1
2014-Aug-27 11:33N 39°36' E 002°05'1414.2
2014-Aug-27 10:33N 39°47' E 002°16'1414.2
2014-Aug-27 09:33N 39°58' E 002°28'1414.3
2014-Aug-27 08:33N 40°08' E 002°41'1414.2
2014-Aug-27 07:33N 40°19' E 002°53'1414.3
2014-Aug-27 06:33N 40°30' E 003°04'1414.3
2014-Aug-27 05:33N 40°41' E 003°17'1514.2
2014-Aug-27 04:31N 40°53' E 003°29'4214.0
2014-Aug-27 01:32N 41°24' E 004°06'1514.6
2014-Aug-27 00:32N 41°35' E 004°18'1413.3
2014-Aug-26 23:28N 41°46' E 004°30'1414.5
2014-Aug-26 22:31N 41°57' E 004°42'1514.2
2014-Aug-26 21:29N 42°08' E 004°55'1314.1
2014-Aug-26 20:33N 42°18' E 005°07'1413.8
2014-Aug-26 19:34N 42°28' E 005°19'1514.5
2014-Aug-26 18:30N 42°40' E 005°32'1313.7
2014-Aug-26 17:33N 42°50' E 005°44'1414.1
2014-Aug-26 16:33N 43°01' E 005°56'6 0.9
2014-Aug-26 09:32N 43°07' E 005°56'0 0.0
2014-Aug-26 08:08N 43°07' E 005°56'0 0.0
2014-Aug-26 07:32N 43°07' E 005°56'0 0.0
2014-Aug-26 06:26N 43°07' E 005°56'2 2.0
2014-Aug-26 05:33N 43°05' E 005°56'10 9.8
2014-Aug-26 04:33N 42°59' E 006°06'1111.2
2014-Aug-26 03:34N 42°57' E 006°21'1311.3
2014-Aug-26 02:23N 43°01' E 006°39'1113.7
2014-Aug-26 01:33N 43°08' E 006°51'1715.0
2014-Aug-26 00:26N 43°17' E 007°10'1714.9
2014-Aug-25 23:19N 43°27' E 007°29'5814.7
2014-Aug-25 19:24N 44°02' E 008°33'1214.3
2014-Aug-25 18:32N 44°11' E 008°45'1413.9
2014-Aug-25 17:34N 44°20' E 008°58'5 4.3
2014-Aug-25 16:30N 44°25' E 008°55'0 0.0
2014-Aug-25 15:30N 44°25' E 008°55'0 0.0
2014-Aug-25 14:33N 44°25' E 008°55'0 0.0
2014-Aug-25 13:30N 44°25' E 008°55'0 0.0
2014-Aug-25 12:30N 44°25' E 008°55'0 0.0
2014-Aug-25 11:33N 44°25' E 008°55'0 0.0
2014-Aug-25 10:27N 44°25' E 008°55'0 0.0
2014-Aug-25 09:30N 44°25' E 008°55'0 0.0
2014-Aug-25 08:30N 44°25' E 008°55'0 0.1
2014-Aug-25 07:30N 44°25' E 008°55'7 7.2
2014-Aug-25 06:33N 44°19' E 008°60'2020.0
2014-Aug-25 05:33N 44°01' E 009°13'2019.9
2014-Aug-25 04:34N 43°44' E 009°26'1919.4
2014-Aug-25 03:33N 43°27' E 009°39'1919.4
2014-Aug-25 02:33N 43°11' E 009°55'  
2014-Aug-22 00:28N 39°19' E 003°42'1111.8
2014-Aug-21 23:32N 39°11' E 003°31'1211.9
2014-Aug-21 22:33N 39°03' E 003°20'1212.1
2014-Aug-21 21:33N 38°56' E 003°08'1212.4
2014-Aug-21 20:33N 38°54' E 002°52'1212.3
2014-Aug-21 19:33N 38°54' E 002°36'1212.1
2014-Aug-21 18:32N 38°54' E 002°21'1212.2
2014-Aug-21 17:33N 38°54' E 002°05'1212.3
2014-Aug-21 16:33N 38°54' E 001°49'1212.4
2014-Aug-21 15:33N 38°54' E 001°33'3 0.1
2014-Aug-20 15:33N 38°54' E 001°29'1413.8
2014-Aug-20 14:32N 39°02' E 001°44'1414.0
2014-Aug-20 13:33N 39°15' E 001°52'  
Track history (hours):
 
Tides and Currents Weather Stations Pressure Air Temp Water Temp Dewpoint Dewpoint Depression Visibility Wind Speed Wind Dir Waves Ship Positions

MSC Sinfonia

Last reported at 2014-Aug-30 13:28 UTC. Time now 2014-Aug-30 20:33 UTC.
Position N 40°55' E 009°32'.

Length 251 m; draft 6.8 m.

Type: Passenger vessel. MMSI: 356715971.

Date/timePositionNaut miles runAvg speedWind from/ knotsBaromVisibWave heightAir tempDewpointWater temp
2014-Aug-30 13:28N 40°55' E 009°32'1 0.3
2014-Aug-30 10:22N 40°55' E 009°31'0 0.0
2014-Aug-30 09:28N 40°55' E 009°31'0 0.0
2014-Aug-30 08:31N 40°55' E 009°31'0 0.0
2014-Aug-30 06:33N 40°55' E 009°31'246 9.3
2014-Aug-29 04:13N 39°50' E 004°20'811.2
2014-Aug-29 03:32N 39°43' E 004°16'1111.8
2014-Aug-29 02:33N 39°35' E 004°05'1211.8
2014-Aug-29 01:33N 39°27' E 003°54'1211.8
2014-Aug-29 00:33N 39°19' E 003°43'1211.9
2014-Aug-28 23:33N 39°11' E 003°31'1312.1
2014-Aug-28 22:31N 39°03' E 003°19'1212.2
2014-Aug-28 21:33N 38°56' E 003°07'1212.0
2014-Aug-28 20:33N 38°54' E 002°52'1212.2
2014-Aug-28 19:33N 38°54' E 002°36'1212.3
2014-Aug-28 18:33N 38°54' E 002°20'1211.9
2014-Aug-28 17:34N 38°54' E 002°05'1211.8
2014-Aug-28 16:33N 38°54' E 001°50'1312.5
2014-Aug-28 15:33N 38°54' E 001°34'5 0.2
2014-Aug-27 15:31N 38°54' E 001°27'1010.9
2014-Aug-27 14:33N 38°58' E 001°40'1414.2
2014-Aug-27 13:33N 39°11' E 001°49'1914.2
2014-Aug-27 12:12N 39°28' E 001°59'914.1
2014-Aug-27 11:33N 39°36' E 002°05'1414.2
2014-Aug-27 10:33N 39°47' E 002°16'1414.2
2014-Aug-27 09:33N 39°58' E 002°28'1414.3
2014-Aug-27 08:33N 40°08' E 002°41'1414.2
2014-Aug-27 07:33N 40°19' E 002°53'1414.3
2014-Aug-27 06:33N 40°30' E 003°04'1414.3
2014-Aug-27 05:33N 40°41' E 003°17'1514.2
2014-Aug-27 04:31N 40°53' E 003°29'4214.0
2014-Aug-27 01:32N 41°24' E 004°06'1514.6
2014-Aug-27 00:32N 41°35' E 004°18'1413.3
2014-Aug-26 23:28N 41°46' E 004°30'1414.5
2014-Aug-26 22:31N 41°57' E 004°42'1514.2
2014-Aug-26 21:29N 42°08' E 004°55'1314.1
2014-Aug-26 20:33N 42°18' E 005°07'1413.8
2014-Aug-26 19:34N 42°28' E 005°19'1514.5
2014-Aug-26 18:30N 42°40' E 005°32'1313.7
2014-Aug-26 17:33N 42°50' E 005°44'1414.1
2014-Aug-26 16:33N 43°01' E 005°56'6 0.9
2014-Aug-26 09:32N 43°07' E 005°56'0 0.0
2014-Aug-26 08:08N 43°07' E 005°56'0 0.0
2014-Aug-26 07:32N 43°07' E 005°56'0 0.0
2014-Aug-26 06:26N 43°07' E 005°56'2 2.0
2014-Aug-26 05:33N 43°05' E 005°56'10 9.8
2014-Aug-26 04:33N 42°59' E 006°06'1111.2
2014-Aug-26 03:34N 42°57' E 006°21'1311.3
2014-Aug-26 02:23N 43°01' E 006°39'1113.7
2014-Aug-26 01:33N 43°08' E 006°51'1715.0
2014-Aug-26 00:26N 43°17' E 007°10'1714.9
2014-Aug-25 23:19N 43°27' E 007°29'5814.7
2014-Aug-25 19:24N 44°02' E 008°33'1214.3
2014-Aug-25 18:32N 44°11' E 008°45'1413.9
2014-Aug-25 17:34N 44°20' E 008°58'5 4.3
2014-Aug-25 16:30N 44°25' E 008°55'0 0.0
2014-Aug-25 15:30N 44°25' E 008°55'0 0.0
2014-Aug-25 14:33N 44°25' E 008°55'0 0.0
2014-Aug-25 13:30N 44°25' E 008°55'0 0.0
2014-Aug-25 12:30N 44°25' E 008°55'0 0.0
2014-Aug-25 11:33N 44°25' E 008°55'0 0.0
2014-Aug-25 10:27N 44°25' E 008°55'0 0.0
2014-Aug-25 09:30N 44°25' E 008°55'0 0.0
2014-Aug-25 08:30N 44°25' E 008°55'0 0.1
2014-Aug-25 07:30N 44°25' E 008°55'7 7.2
2014-Aug-25 06:33N 44°19' E 008°60'2020.0
2014-Aug-25 05:33N 44°01' E 009°13'2019.9
2014-Aug-25 04:34N 43°44' E 009°26'1919.4
2014-Aug-25 03:33N 43°27' E 009°39'1919.4
2014-Aug-25 02:33N 43°11' E 009°55'  
2014-Aug-22 00:28N 39°19' E 003°42'1111.8
2014-Aug-21 23:32N 39°11' E 003°31'1211.9
2014-Aug-21 22:33N 39°03' E 003°20'1212.1
2014-Aug-21 21:33N 38°56' E 003°08'1212.4
2014-Aug-21 20:33N 38°54' E 002°52'1212.3
2014-Aug-21 19:33N 38°54' E 002°36'1212.1
2014-Aug-21 18:32N 38°54' E 002°21'1212.2
2014-Aug-21 17:33N 38°54' E 002°05'1212.3
2014-Aug-21 16:33N 38°54' E 001°49'1212.4
2014-Aug-21 15:33N 38°54' E 001°33'3 0.1
2014-Aug-20 15:33N 38°54' E 001°29'1413.8
2014-Aug-20 14:32N 39°02' E 001°44'1414.0
2014-Aug-20 13:33N 39°15' E 001°52'  

Dump ship's entire track history